Huvudsida
METAR-TAF:

METAR-TAF

Flygplatser :

Tarvisio, Italien

latitud: 46-30N, longitud: 013-35E, höjd: 777 m

Aktuellt väderrapport

Denna rapport gjordes för 1 timme och 2 minuter sedan, klockan 12:55 UTC
Vind 6 kt från väst
Temperatur 9°C
Fuktighet 43%
Tryck 1028 hPa
Sikt 10 km eller mer
Inga moln under 1 500 m eller inga cumulonimbus

METAR: LIVO 221255Z 27006KT CAVOK 09/M03 Q1028 RMK BKN SCT060 SCT160 VIS MIN 9999

Tid: 14:57 (13:57 UTC)


TAF: saknas

Aktuella väderrapporter och prognoser från 4000 flygplatser (METAR- och TAF-rapporter).

De tillgängliga stationerna syns som gula och röda prickar på kartan.

För musen över prickarna för att se namnen på stationerna.

Klicka sedan för att få väderrapporter och prognoser.

För att ändra kartan: Klicka på de gröna knapparna med ett svart kors på för att zooma in; den gröna knappen med ett streck på för att zooma ut; eller på de gröna pilarna för angränsande kartor.


METAR-TAF: